createdAt,value
2022-10-20T00:01:08.438Z,76.53
2022-10-20T00:03:35.125Z,76.86
2022-10-20T00:06:09.050Z,77.21
2022-10-20T00:08:35.698Z,77.45
2022-10-20T00:11:02.387Z,77.79
2022-10-20T00:13:28.932Z,77.84
2022-10-20T00:15:56.145Z,78.02
2022-10-20T00:18:23.991Z,78.22
2022-10-20T00:20:51.403Z,78.41
2022-10-20T00:23:18.072Z,78.18
2022-10-20T00:25:44.691Z,76.69
2022-10-20T00:28:11.251Z,77.66
2022-10-20T00:30:38.495Z,77.91
2022-10-20T00:33:06.203Z,78.25
2022-10-20T00:35:33.997Z,78.70
2022-10-20T00:38:00.486Z,78.61
2022-10-20T00:40:27.019Z,78.83
2022-10-20T00:42:53.508Z,79.15
2022-10-20T00:45:22.410Z,78.79
2022-10-20T00:48:08.361Z,78.43
2022-10-20T00:50:41.688Z,79.12
2022-10-20T00:53:08.599Z,79.85
2022-10-20T00:55:40.134Z,80.11
2022-10-20T00:58:07.135Z,80.24
2022-10-20T01:00:33.944Z,80.87
2022-10-20T01:03:02.202Z,81.07
2022-10-20T01:05:28.954Z,81.32
2022-10-20T01:07:55.450Z,81.40
2022-10-20T01:10:25.340Z,81.34
2022-10-20T01:13:00.669Z,81.68
2022-10-20T01:15:45.987Z,82.03
2022-10-20T01:18:17.822Z,82.09
2022-10-20T01:21:16.675Z,81.99
2022-10-20T01:24:01.511Z,82.57
2022-10-20T01:26:41.254Z,82.62
2022-10-20T01:29:40.178Z,81.86
2022-10-20T01:32:15.646Z,81.31
2022-10-20T01:35:05.486Z,81.81
2022-10-20T01:37:49.808Z,82.20
2022-10-20T01:40:29.166Z,80.88
2022-10-20T01:43:01.435Z,82.17
2022-10-20T01:45:32.837Z,81.66
2022-10-20T01:48:02.574Z,82.86
2022-10-20T01:50:30.286Z,83.65
2022-10-20T01:52:58.167Z,83.64
2022-10-20T01:55:24.930Z,83.86
2022-10-20T01:58:20.981Z,83.88
2022-10-20T02:00:49.427Z,84.65
2022-10-20T02:03:21.600Z,83.96
2022-10-20T02:06:26.701Z,84.34
2022-10-20T02:08:57.242Z,83.43
2022-10-20T02:11:48.481Z,84.21
2022-10-20T02:14:18.687Z,84.91
2022-10-20T02:16:49.325Z,85.29
2022-10-20T02:19:18.803Z,85.66
2022-10-20T02:21:46.833Z,85.42
2022-10-20T02:24:16.000Z,85.74
2022-10-20T02:26:44.184Z,85.67
2022-10-20T02:29:18.289Z,86.15
2022-10-20T02:31:45.108Z,86.20
2022-10-20T02:34:12.583Z,85.91
2022-10-20T02:36:42.866Z,85.85
2022-10-20T02:39:09.926Z,86.77
2022-10-20T02:41:37.533Z,86.13
2022-10-20T02:44:04.369Z,86.43
2022-10-20T02:46:30.965Z,87.07
2022-10-20T02:48:57.511Z,87.00
2022-10-20T02:51:24.065Z,86.73
2022-10-20T02:53:50.620Z,85.24
2022-10-20T02:56:17.159Z,85.65
2022-10-20T02:58:43.683Z,85.63
2022-10-20T03:01:10.268Z,86.42
2022-10-20T03:03:36.910Z,84.41
2022-10-20T03:06:15.509Z,85.09
2022-10-20T03:08:42.898Z,86.05
2022-10-20T03:11:09.802Z,84.98
2022-10-20T03:13:36.475Z,85.84
2022-10-20T03:16:03.101Z,84.85
2022-10-20T03:18:29.631Z,83.76
2022-10-20T03:20:56.144Z,83.71
2022-10-20T03:23:22.691Z,84.43
2022-10-20T03:25:49.200Z,84.71
2022-10-20T03:28:15.716Z,85.01
2022-10-20T03:30:42.271Z,86.25
2022-10-20T03:33:08.762Z,84.42
2022-10-20T03:35:35.258Z,84.10
2022-10-20T03:38:01.729Z,84.19
2022-10-20T03:40:28.289Z,85.81
2022-10-20T03:42:54.753Z,87.04
2022-10-20T03:45:21.247Z,85.98
2022-10-20T03:47:47.898Z,86.75
2022-10-20T03:50:14.448Z,85.84
2022-10-20T03:52:41.012Z,85.66
2022-10-20T03:55:07.928Z,86.03
2022-10-20T03:57:34.751Z,86.74
2022-10-20T04:00:01.434Z,87.05
2022-10-20T04:02:36.310Z,87.93
2022-10-20T04:05:03.924Z,87.20
2022-10-20T04:07:30.443Z,86.91
2022-10-20T04:09:57.053Z,86.55
2022-10-20T04:12:24.385Z,86.51
2022-10-20T04:14:51.142Z,87.42
2022-10-20T04:17:19.369Z,87.98
2022-10-20T04:19:46.530Z,88.72
2022-10-20T04:22:13.617Z,87.33
2022-10-20T04:24:41.846Z,88.96
2022-10-20T04:27:08.446Z,88.53
2022-10-20T04:29:35.082Z,87.70
2022-10-20T04:32:01.668Z,89.54
2022-10-20T04:34:29.323Z,89.74
2022-10-20T04:36:55.871Z,90.27
2022-10-20T04:39:22.432Z,90.55
2022-10-20T04:41:48.991Z,90.64
2022-10-20T04:44:15.696Z,91.14
2022-10-20T04:46:42.231Z,91.00
2022-10-20T04:49:09.040Z,90.90
2022-10-20T04:51:36.205Z,90.37
2022-10-20T04:54:02.831Z,90.94
2022-10-20T04:56:31.198Z,91.60
2022-10-20T04:58:59.246Z,91.28
2022-10-20T05:01:28.639Z,91.48
2022-10-20T05:03:55.254Z,91.94
2022-10-20T05:06:27.557Z,92.00
2022-10-20T05:08:57.878Z,91.79
2022-10-20T05:11:26.247Z,92.82
2022-10-20T05:13:53.068Z,92.47
2022-10-20T05:16:20.099Z,93.58
2022-10-20T05:18:48.459Z,93.62
2022-10-20T05:21:20.820Z,95.10
2022-10-20T05:23:47.631Z,95.44
2022-10-20T05:26:18.722Z,96.50
2022-10-20T05:28:47.653Z,95.55
2022-10-20T05:31:15.662Z,95.43
2022-10-20T05:33:47.610Z,94.77
2022-10-20T05:36:19.337Z,95.36
2022-10-20T05:38:48.930Z,95.60
2022-10-20T05:41:17.997Z,95.26
2022-10-20T05:43:57.108Z,95.18
2022-10-20T05:46:25.409Z,95.15
2022-10-20T05:48:57.460Z,95.37
2022-10-20T05:51:26.670Z,94.78
2022-10-20T05:53:55.851Z,94.59
2022-10-20T05:56:23.046Z,95.55
2022-10-20T05:58:49.827Z,95.25
2022-10-20T06:01:20.713Z,95.27
2022-10-20T06:03:52.143Z,95.55
2022-10-20T06:06:21.499Z,95.57
2022-10-20T06:08:48.741Z,95.61
2022-10-20T06:11:15.760Z,96.63
2022-10-20T06:13:42.458Z,96.69
2022-10-20T06:16:19.619Z,96.50
2022-10-20T06:18:46.154Z,95.92
2022-10-20T06:21:24.589Z,96.72
2022-10-20T06:23:51.703Z,96.37
2022-10-20T06:26:23.487Z,95.89
2022-10-20T06:28:58.641Z,96.34
2022-10-20T06:31:30.672Z,96.34
2022-10-20T06:33:58.187Z,96.16
2022-10-20T06:36:25.961Z,95.77
2022-10-20T06:38:57.430Z,95.62
2022-10-20T06:41:25.438Z,95.57
2022-10-20T06:43:59.366Z,95.72
2022-10-20T06:46:30.528Z,95.98
2022-10-20T06:49:00.020Z,95.36
2022-10-20T06:51:26.541Z,95.46
2022-10-20T06:53:53.082Z,95.21
2022-10-20T06:56:24.756Z,94.59
2022-10-20T06:58:55.860Z,94.69
2022-10-20T07:01:36.171Z,94.64
2022-10-20T07:04:06.220Z,94.25
2022-10-20T07:06:39.082Z,94.35
2022-10-20T07:09:08.459Z,94.11
2022-10-20T07:11:36.062Z,94.27
2022-10-20T07:14:04.217Z,94.13
2022-10-20T07:16:33.228Z,94.39
2022-10-20T07:19:00.903Z,94.81
2022-10-20T07:21:32.469Z,95.00
2022-10-20T07:24:04.101Z,94.91
2022-10-20T07:26:33.486Z,94.78
2022-10-20T07:29:01.480Z,94.82
2022-10-20T07:31:31.327Z,93.83
2022-10-20T07:34:13.714Z,90.09
2022-10-20T07:36:49.363Z,88.99
2022-10-20T07:39:16.811Z,87.97
2022-10-20T07:41:47.784Z,85.82
2022-10-20T07:44:14.972Z,86.20
2022-10-20T07:46:41.844Z,84.56
2022-10-20T07:51:54.842Z,79.35
2022-10-20T07:54:21.634Z,78.72
2022-10-20T07:56:49.319Z,76.12
2022-10-20T07:59:16.023Z,74.00
2022-10-20T08:01:42.742Z,75.00
2022-10-20T08:04:09.301Z,73.77
2022-10-20T08:06:35.801Z,75.29
2022-10-20T08:09:02.402Z,72.43
2022-10-20T08:11:29.079Z,69.74
2022-10-20T08:13:55.735Z,69.56
2022-10-20T08:16:24.074Z,69.37
2022-10-20T08:21:22.820Z,70.02
2022-10-20T08:23:49.890Z,69.17
2022-10-20T08:26:24.479Z,68.75
2022-10-20T08:28:52.055Z,68.05
2022-10-20T08:31:18.802Z,66.98
2022-10-20T08:33:50.036Z,64.04
2022-10-20T08:36:18.779Z,64.39
2022-10-20T08:38:45.749Z,64.04
2022-10-20T08:41:21.145Z,64.32
2022-10-20T08:43:50.251Z,65.22
2022-10-20T08:48:51.487Z,61.60
2022-10-20T08:51:21.402Z,62.01
2022-10-20T08:53:51.757Z,62.53
2022-10-20T08:56:22.875Z,62.15
2022-10-20T08:58:49.615Z,59.65
2022-10-20T09:01:28.191Z,55.87
2022-10-20T09:04:19.254Z,57.17
2022-10-20T09:06:50.679Z,57.63
2022-10-20T09:09:20.721Z,58.97
2022-10-20T09:11:48.127Z,57.76
2022-10-20T09:14:16.688Z,56.62
2022-10-20T09:16:59.769Z,57.65
2022-10-20T09:19:28.233Z,55.16
2022-10-20T09:22:06.844Z,55.16
2022-10-20T09:24:35.692Z,54.80
2022-10-20T09:27:20.693Z,53.70
2022-10-20T09:29:47.362Z,54.58
2022-10-20T09:35:28.750Z,51.95
2022-10-20T09:38:04.627Z,51.22
2022-10-20T09:40:32.267Z,49.13
2022-10-20T09:43:09.864Z,51.37
2022-10-20T09:45:39.247Z,45.85
2022-10-20T09:48:19.543Z,46.32
2022-10-20T09:50:50.685Z,47.28
2022-10-20T09:53:20.743Z,49.75
2022-10-20T09:55:49.716Z,44.63
2022-10-20T09:58:42.101Z,43.98
2022-10-20T10:01:18.448Z,42.46
2022-10-20T10:03:47.802Z,39.90
2022-10-20T10:06:33.042Z,40.64
2022-10-20T10:09:02.055Z,38.49
2022-10-20T10:11:37.478Z,37.07
2022-10-20T10:14:05.369Z,35.47
2022-10-20T10:16:43.122Z,36.37
2022-10-20T10:19:18.033Z,33.92
2022-10-20T10:21:53.234Z,34.63
2022-10-20T10:24:28.934Z,33.73
2022-10-20T10:26:57.044Z,34.00
2022-10-20T10:29:35.359Z,34.06
2022-10-20T10:32:12.552Z,32.51
2022-10-20T10:35:09.855Z,33.58
2022-10-20T10:37:42.583Z,32.29
2022-10-20T10:40:16.212Z,32.03
2022-10-20T10:43:03.665Z,30.94
2022-10-20T10:45:43.755Z,29.48
2022-10-20T10:48:28.524Z,28.69
2022-10-20T10:51:01.241Z,28.66
2022-10-20T10:54:00.006Z,28.71
2022-10-20T10:56:49.669Z,29.45
2022-10-20T10:59:31.155Z,28.06
2022-10-20T11:02:19.439Z,26.73
2022-10-20T11:05:07.282Z,27.17
2022-10-20T11:07:54.877Z,26.51
2022-10-20T11:10:27.761Z,26.49
2022-10-20T11:13:27.181Z,27.19
2022-10-20T11:16:31.416Z,28.45
2022-10-20T11:19:47.906Z,25.80
2022-10-20T11:22:37.448Z,26.34
2022-10-20T11:25:36.081Z,26.29
2022-10-20T11:28:22.511Z,26.94
2022-10-20T11:30:50.174Z,28.42
2022-10-20T11:33:23.120Z,27.44
2022-10-20T11:35:54.256Z,26.09
2022-10-20T11:38:31.344Z,26.05
2022-10-20T11:41:12.892Z,26.15
2022-10-20T11:43:57.325Z,26.13
2022-10-20T11:46:46.082Z,25.16
2022-10-20T11:49:12.686Z,23.83
2022-10-20T11:51:51.016Z,24.94
2022-10-20T11:54:29.514Z,26.64
2022-10-20T11:56:58.929Z,26.20
2022-10-20T11:59:35.107Z,24.95
2022-10-20T12:02:22.859Z,24.22
2022-10-20T12:05:23.350Z,24.34
2022-10-20T12:08:24.778Z,24.54
2022-10-20T12:11:05.422Z,23.56
2022-10-20T12:13:48.005Z,22.48
2022-10-20T12:16:52.425Z,26.10
2022-10-20T12:19:30.851Z,28.53
2022-10-20T12:22:13.814Z,28.75
2022-10-20T12:25:03.392Z,27.18
2022-10-20T12:27:30.604Z,26.29
2022-10-20T12:30:06.189Z,24.91
2022-10-20T12:32:57.457Z,24.95
2022-10-20T12:35:23.890Z,28.15
2022-10-20T12:38:02.446Z,25.92
2022-10-20T12:40:41.034Z,24.92
2022-10-20T12:43:25.532Z,23.81
2022-10-20T12:45:56.807Z,23.50
2022-10-20T12:48:24.519Z,24.40
2022-10-20T12:50:52.267Z,25.27
2022-10-20T12:53:29.274Z,24.18
2022-10-20T12:56:04.028Z,22.50
2022-10-20T12:59:19.670Z,22.10
2022-10-20T13:02:10.954Z,21.48
2022-10-20T13:04:52.716Z,22.55
2022-10-20T13:07:47.792Z,24.00
2022-10-20T13:10:32.345Z,22.60
2022-10-20T13:13:01.582Z,22.73
2022-10-20T13:15:43.217Z,22.32
2022-10-20T13:18:12.882Z,22.44
2022-10-20T13:20:43.940Z,22.11
2022-10-20T13:23:16.168Z,22.08
2022-10-20T13:25:52.679Z,22.26
2022-10-20T13:28:23.275Z,21.84
2022-10-20T13:30:52.607Z,22.20
2022-10-20T13:36:39.615Z,21.05
2022-10-20T13:39:27.831Z,23.06
2022-10-20T13:42:27.911Z,22.64
2022-10-20T13:45:24.591Z,22.41
2022-10-20T13:48:01.906Z,23.63
2022-10-20T13:50:36.614Z,23.40
2022-10-20T13:53:10.291Z,23.88
2022-10-20T13:55:59.858Z,24.18
2022-10-20T13:58:27.131Z,24.77
2022-10-20T14:01:03.089Z,24.95
2022-10-20T14:03:31.265Z,25.07
2022-10-20T14:05:59.742Z,24.87
2022-10-20T14:08:26.560Z,24.82
2022-10-20T14:10:59.621Z,24.20
2022-10-20T14:13:30.441Z,23.88
2022-10-20T14:15:59.050Z,24.55
2022-10-20T14:18:31.661Z,26.29
2022-10-20T14:21:05.549Z,25.35
2022-10-20T14:23:37.107Z,24.71
2022-10-20T14:26:07.596Z,25.31
2022-10-20T14:28:36.391Z,25.19
2022-10-20T14:31:03.328Z,25.13
2022-10-20T14:33:30.876Z,26.23
2022-10-20T14:35:59.496Z,26.49
2022-10-20T14:38:37.693Z,26.92
2022-10-20T14:41:07.059Z,27.48
2022-10-20T14:43:43.846Z,28.29
2022-10-20T14:46:12.879Z,27.91
2022-10-20T14:48:45.560Z,27.82
2022-10-20T14:52:00.503Z,31.37
2022-10-20T14:54:31.352Z,29.72
2022-10-20T14:57:09.922Z,31.81
2022-10-20T15:00:03.784Z,33.24
2022-10-20T15:02:39.162Z,34.03
2022-10-20T15:05:44.351Z,34.11
2022-10-20T15:08:25.846Z,34.19
2022-10-20T15:10:52.973Z,34.94
2022-10-20T15:13:26.534Z,35.81
2022-10-20T15:15:54.686Z,35.38
2022-10-20T15:18:23.554Z,37.19
2022-10-20T15:20:51.997Z,37.62
2022-10-20T15:23:27.219Z,38.91
2022-10-20T15:26:09.539Z,37.43
2022-10-20T15:28:47.500Z,37.51
2022-10-20T15:31:13.918Z,40.26
2022-10-20T15:33:41.329Z,41.05
2022-10-20T15:36:21.180Z,42.83
2022-10-20T15:38:51.232Z,42.38
2022-10-20T15:41:26.952Z,43.84
2022-10-20T15:43:53.917Z,43.81
2022-10-20T15:46:20.955Z,43.00
2022-10-20T15:48:48.015Z,44.50
2022-10-20T15:51:24.789Z,46.59
2022-10-20T15:53:51.407Z,46.18
2022-10-20T15:56:18.447Z,47.53
2022-10-20T15:58:45.484Z,48.67
2022-10-20T16:01:13.736Z,50.08
2022-10-20T16:03:43.228Z,52.82
2022-10-20T16:06:13.477Z,52.48
2022-10-20T16:08:41.313Z,52.92
2022-10-20T16:11:08.931Z,54.79
2022-10-20T16:13:36.050Z,55.14
2022-10-20T16:16:02.540Z,55.36
2022-10-20T16:18:29.081Z,55.54
2022-10-20T16:20:58.626Z,55.96
2022-10-20T16:23:25.352Z,57.32
2022-10-20T16:25:52.401Z,57.88
2022-10-20T16:28:19.164Z,58.64
2022-10-20T16:30:45.725Z,60.04
2022-10-20T16:33:12.287Z,60.68
2022-10-20T16:35:45.130Z,61.50
2022-10-20T16:38:11.687Z,61.95
2022-10-20T16:40:38.263Z,62.42
2022-10-20T16:43:04.870Z,63.25
2022-10-20T16:45:31.660Z,62.90
2022-10-20T16:47:58.162Z,63.57
2022-10-20T16:50:24.725Z,63.26
2022-10-20T16:52:51.194Z,63.87
2022-10-20T16:55:17.763Z,62.81
2022-10-20T16:57:44.271Z,63.66
2022-10-20T17:00:11.311Z,65.88
2022-10-20T17:02:38.173Z,65.26
2022-10-20T17:05:08.258Z,65.40
2022-10-20T17:07:37.317Z,65.32
2022-10-20T17:10:04.376Z,66.26
2022-10-20T17:12:30.998Z,68.27
2022-10-20T17:14:57.526Z,68.86
2022-10-20T17:17:23.998Z,68.25
2022-10-20T17:19:50.510Z,67.30
2022-10-20T17:22:16.998Z,68.80
2022-10-20T17:24:43.573Z,68.86
2022-10-20T17:27:11.101Z,69.54
2022-10-20T17:29:37.647Z,71.16
2022-10-20T17:32:04.379Z,72.78
2022-10-20T17:34:30.964Z,71.76
2022-10-20T17:36:57.516Z,72.08
2022-10-20T17:39:24.727Z,71.24
2022-10-20T17:41:51.219Z,70.96
2022-10-20T17:44:17.693Z,71.62
2022-10-20T17:46:44.235Z,72.01
2022-10-20T17:49:10.746Z,73.38
2022-10-20T17:51:37.516Z,72.90
2022-10-20T17:54:04.926Z,73.01
2022-10-20T17:56:36.594Z,72.73
2022-10-20T17:59:05.365Z,73.23
2022-10-20T18:01:34.723Z,72.93
2022-10-20T18:04:06.098Z,72.75
2022-10-20T18:06:34.725Z,73.15
2022-10-20T18:09:07.154Z,74.50
2022-10-20T18:11:35.084Z,76.00
2022-10-20T18:14:02.147Z,75.25
2022-10-20T18:16:31.479Z,75.06
2022-10-20T18:18:59.649Z,74.20
2022-10-20T18:21:27.677Z,76.30
2022-10-20T18:23:59.183Z,77.75
2022-10-20T18:26:25.895Z,76.15
2022-10-20T18:28:52.732Z,77.53
2022-10-20T18:31:24.633Z,78.14
2022-10-20T18:33:57.265Z,78.79
2022-10-20T18:36:25.231Z,79.25
2022-10-20T18:38:53.466Z,77.06
2022-10-20T18:41:23.215Z,77.41
2022-10-20T18:43:57.817Z,76.50
2022-10-20T18:46:26.127Z,77.29
2022-10-20T18:48:52.950Z,76.84
2022-10-20T18:51:19.498Z,76.70
2022-10-20T18:53:46.780Z,78.06
2022-10-20T18:56:21.134Z,78.94
2022-10-20T18:58:55.859Z,80.22
2022-10-20T19:01:23.744Z,80.72
2022-10-20T19:03:53.093Z,80.54
2022-10-20T19:06:22.044Z,80.57
2022-10-20T19:08:52.895Z,80.30
2022-10-20T19:11:20.705Z,81.56
2022-10-20T19:13:47.765Z,82.27
2022-10-20T19:16:19.110Z,81.84
2022-10-20T19:18:47.683Z,81.59
2022-10-20T19:21:14.590Z,80.28
2022-10-20T19:23:44.056Z,79.13
2022-10-20T19:26:23.375Z,80.50
2022-10-20T19:28:58.476Z,82.03
2022-10-20T19:31:34.209Z,80.85
2022-10-20T19:34:05.690Z,80.88
2022-10-20T19:36:33.031Z,80.29
2022-10-20T19:38:59.567Z,80.74
2022-10-20T19:41:26.861Z,80.59
2022-10-20T19:43:53.718Z,81.71
2022-10-20T19:46:21.758Z,81.34
2022-10-20T19:48:48.806Z,82.15
2022-10-20T19:51:16.959Z,83.01
2022-10-20T19:53:44.150Z,84.01
2022-10-20T19:56:11.007Z,84.01
2022-10-20T19:58:41.431Z,84.84
2022-10-20T20:01:11.225Z,84.71
2022-10-20T20:03:37.831Z,83.13
2022-10-20T20:06:07.987Z,82.73
2022-10-20T20:08:35.498Z,82.04
2022-10-20T20:11:04.338Z,83.41
2022-10-20T20:13:31.908Z,83.15
2022-10-20T20:16:06.986Z,83.41
2022-10-20T20:18:34.779Z,83.70
2022-10-20T20:21:03.793Z,83.81
2022-10-20T20:23:41.280Z,84.63
2022-10-20T20:26:17.528Z,83.22
2022-10-20T20:28:44.060Z,83.34
2022-10-20T20:31:12.164Z,82.42
2022-10-20T20:33:38.769Z,82.99
2022-10-20T20:36:07.889Z,82.91
2022-10-20T20:38:36.643Z,83.74
2022-10-20T20:41:10.232Z,84.03
2022-10-20T20:43:37.495Z,85.07
2022-10-20T20:46:09.293Z,84.35
2022-10-20T20:48:36.635Z,83.58
2022-10-20T20:51:04.898Z,84.55
2022-10-20T20:56:12.024Z,85.11
2022-10-20T20:58:38.976Z,85.50
2022-10-20T21:01:12.695Z,85.04
2022-10-20T21:03:40.132Z,85.63
2022-10-20T21:06:08.684Z,83.93
2022-10-20T21:08:39.733Z,83.87
2022-10-20T21:11:07.318Z,85.06
2022-10-20T21:13:35.684Z,84.80
2022-10-20T21:16:13.725Z,85.61
2022-10-20T21:18:42.452Z,83.44
2022-10-20T21:23:43.428Z,84.53
2022-10-20T21:26:11.520Z,85.68
2022-10-20T21:28:38.662Z,85.64
2022-10-20T21:31:11.282Z,86.09
2022-10-20T21:33:38.537Z,86.01
2022-10-20T21:36:07.780Z,87.46
2022-10-20T21:38:35.446Z,86.72
2022-10-20T21:41:06.901Z,85.99
2022-10-20T21:43:35.135Z,85.73
2022-10-20T21:46:18.418Z,85.34
2022-10-20T21:48:46.309Z,85.02
2022-10-20T21:51:15.953Z,86.60
2022-10-20T21:53:43.097Z,86.15
2022-10-20T21:56:10.299Z,86.08
2022-10-20T21:58:37.868Z,85.87
2022-10-20T22:01:10.401Z,85.91
2022-10-20T22:03:36.993Z,86.61
2022-10-20T22:06:03.954Z,87.36
2022-10-20T22:08:30.554Z,87.59
2022-10-20T22:10:57.099Z,86.73
2022-10-20T22:13:23.609Z,86.50
2022-10-20T22:15:50.102Z,87.01
2022-10-20T22:18:16.651Z,86.20
2022-10-20T22:20:43.131Z,87.97
2022-10-20T22:23:09.611Z,87.42
2022-10-20T22:25:37.903Z,87.34
2022-10-20T22:28:05.686Z,86.78
2022-10-20T22:30:32.998Z,87.18
2022-10-20T22:32:59.629Z,86.95
2022-10-20T22:35:26.659Z,87.86
2022-10-20T22:37:53.447Z,87.37
2022-10-20T22:40:20.280Z,86.96
2022-10-20T22:42:46.818Z,86.84
2022-10-20T22:45:13.370Z,86.87
2022-10-20T22:47:39.882Z,87.80
2022-10-20T22:50:06.944Z,88.70
2022-10-20T22:52:33.459Z,88.14
2022-10-20T22:54:59.950Z,88.57
2022-10-20T22:57:26.442Z,88.69
2022-10-20T22:59:53.028Z,89.29
2022-10-20T23:02:19.527Z,88.75
2022-10-20T23:04:46.015Z,88.28
2022-10-20T23:07:12.667Z,88.94
2022-10-20T23:09:39.270Z,88.31
2022-10-20T23:12:05.752Z,87.62
2022-10-20T23:14:32.472Z,86.66
2022-10-20T23:16:59.031Z,88.41
2022-10-20T23:19:25.703Z,87.96
2022-10-20T23:21:52.250Z,88.29
2022-10-20T23:24:18.843Z,87.13
2022-10-20T23:26:45.364Z,88.32
2022-10-20T23:29:11.942Z,89.65
2022-10-20T23:31:38.543Z,89.27
2022-10-20T23:34:05.171Z,90.30
2022-10-20T23:36:34.273Z,89.39
2022-10-20T23:39:03.686Z,88.67
2022-10-20T23:41:30.261Z,88.71
2022-10-20T23:43:56.766Z,89.68
2022-10-20T23:46:24.643Z,87.86
2022-10-20T23:48:51.150Z,88.95
2022-10-20T23:51:17.673Z,89.45
2022-10-20T23:53:44.203Z,88.76
2022-10-20T23:56:10.741Z,88.38
2022-10-20T23:58:37.289Z,87.40
